Time;durP1;ratioP1;P1;durP2;ratioP2;P2;SDS_P1;SDS_P2;PMS_P1;PMS_P2;Temp;Humidity;BMP_temperature;BMP_pressure;BME280_temperature;BME280_humidity;BME280_pressure;Samples;Min_cycle;Max_cycle;Signal;HPM_P1;HPM_P2
2023/08/10 00:05:16;;;;;;;21.60;6.53;;;32.10;34.90;;;;;;20832491;28;20096;-57
2023/08/10 00:15:17;;;;;;;25.27;7.18;;;32.10;34.80;;;;;;20842652;28;20077;-57
2023/08/10 00:25:18;;;;;;;22.00;6.05;;;32.00;34.40;;;;;;20843374;28;20495;-58
2023/08/10 00:35:19;;;;;;;20.02;6.63;;;31.90;34.60;;;;;;20841108;28;20057;-57
2023/08/10 00:45:20;;;;;;;28.67;6.82;;;31.80;34.70;;;;;;20840435;28;20072;-57
2023/08/10 00:55:21;;;;;;;16.98;6.05;;;31.60;34.90;;;;;;20840939;28;20056;-57
2023/08/10 01:05:21;;;;;;;16.45;5.82;;;31.60;35.10;;;;;;20840219;28;20049;-56
2023/08/10 01:15:28;;;;;;;25.75;6.93;;;31.40;35.10;;;;;;20839010;28;20045;-57
2023/08/10 01:25:29;;;;;;;17.75;5.95;;;31.30;35.20;;;;;;20838545;28;20061;-56
2023/08/10 01:35:30;;;;;;;19.15;5.95;;;31.10;35.30;;;;;;20836584;28;20061;-57
2023/08/10 01:45:31;;;;;;;14.10;5.35;;;31.00;35.50;;;;;;20837318;28;20048;-57
2023/08/10 01:55:32;;;;;;;24.75;6.30;;;31.10;35.40;;;;;;20836565;28;20048;-57
2023/08/10 02:05:33;;;;;;;23.27;5.82;;;31.10;35.60;;;;;;20835753;28;20041;-58
2023/08/10 02:15:34;;;;;;;16.67;6.70;;;31.00;35.80;;;;;;20834621;28;20482;-56
2023/08/10 02:25:35;;;;;;;21.83;6.72;;;30.80;35.90;;;;;;20833997;28;20046;-57
2023/08/10 02:35:36;;;;;;;22.33;5.72;;;30.70;36.00;;;;;;20831127;28;20061;-56
2023/08/10 02:45:36;;;;;;;22.00;6.18;;;30.50;35.50;;;;;;20832682;28;20080;-57
2023/08/10 02:55:37;;;;;;;15.13;5.30;;;30.20;35.90;;;;;;20831949;28;20045;-57
2023/08/10 03:05:38;;;;;;;16.42;5.18;;;30.20;35.80;;;;;;20830386;28;20084;-57
2023/08/10 03:15:39;;;;;;;20.05;6.68;;;30.00;36.10;;;;;;20830381;28;20572;-57
2023/08/10 03:25:39;;;;;;;19.50;6.53;;;29.90;36.20;;;;;;20830033;28;20041;-58
2023/08/10 03:35:40;;;;;;;15.75;4.93;;;29.90;36.20;;;;;;20828233;28;20088;-57
2023/08/10 03:45:41;;;;;;;17.08;5.30;;;29.90;35.40;;;;;;20841713;28;20490;-57
2023/08/10 03:55:41;;;;;;;16.95;5.28;;;29.60;35.30;;;;;;20845206;28;20478;-57
2023/08/10 04:05:42;;;;;;;15.55;4.70;;;29.60;34.80;;;;;;20843453;28;20076;-57
2023/08/10 04:15:43;;;;;;;11.95;4.22;;;29.30;33.80;;;;;;20844062;28;20395;-57
2023/08/10 04:25:44;;;;;;;16.73;4.57;;;29.10;33.20;;;;;;20843130;28;20094;-57
2023/08/10 04:35:44;;;;;;;12.70;4.50;;;28.90;33.20;;;;;;20841554;28;20411;-57
2023/08/10 04:45:46;;;;;;;10.10;3.60;;;28.70;33.20;;;;;;20840353;28;20050;-56
2023/08/10 04:55:47;;;;;;;13.85;4.82;;;28.60;33.00;;;;;;20840548;28;20042;-58
2023/08/10 05:05:49;;;;;;;8.50;3.67;;;28.40;33.20;;;;;;20840360;28;20052;-57
2023/08/10 05:15:50;;;;;;;10.10;3.47;;;28.30;32.90;;;;;;20838044;28;20041;-57
2023/08/10 05:25:51;;;;;;;8.15;3.28;;;28.40;32.80;;;;;;20839378;28;20053;-57
2023/08/10 05:35:51;;;;;;;;;;;28.20;32.50;;;;;;20838620;28;20049;-57
2023/08/10 05:45:52;;;;;;;7.47;3.10;;;27.90;32.80;;;;;;20837410;28;19960;-58
2023/08/10 05:55:53;;;;;;;8.85;3.75;;;27.80;32.90;;;;;;20836182;28;20125;-56
2023/08/10 06:05:54;;;;;;;10.85;3.60;;;27.60;33.40;;;;;;20835176;28;20067;-57
2023/08/10 06:15:55;;;;;;;13.32;3.58;;;27.60;33.70;;;;;;20833788;28;20041;-57
2023/08/10 06:25:55;;;;;;;12.00;4.40;;;27.70;33.70;;;;;;20834121;28;20053;-57
2023/08/10 06:35:56;;;;;;;14.18;4.70;;;27.80;33.70;;;;;;20832930;28;20348;-57
2023/08/10 06:45:58;;;;;;;12.27;3.72;;;27.90;34.00;;;;;;20832280;28;20124;-57
2023/08/10 06:55:59;;;;;;;9.45;3.85;;;28.20;33.50;;;;;;20829891;28;20049;-58
2023/08/10 07:05:59;;;;;;;11.63;4.30;;;28.60;32.90;;;;;;20830919;28;20398;-57
2023/08/10 07:16:00;;;;;;;10.07;4.32;;;28.80;32.90;;;;;;20830194;28;20467;-57
2023/08/10 07:26:01;;;;;;;12.68;4.07;;;29.10;32.50;;;;;;20830331;28;20104;-58
2023/08/10 07:36:02;;;;;;;13.32;4.65;;;29.60;32.00;;;;;;20830411;28;20056;-57
2023/08/10 07:46:03;;;;;;;12.38;4.18;;;30.00;31.40;;;;;;20829922;28;20099;-56
2023/08/10 07:56:04;;;;;;;10.93;4.45;;;30.60;31.30;;;;;;20829355;28;20049;-57
2023/08/10 08:06:04;;;;;;;16.00;5.07;;;30.80;30.80;;;;;;20829701;28;20435;-56
2023/08/10 08:16:05;;;;;;;11.65;4.57;;;31.20;30.90;;;;;;20829473;28;20099;-57
2023/08/10 08:26:06;;;;;;;10.85;4.53;;;31.60;29.70;;;;;;20831158;28;20077;-58
2023/08/10 08:36:08;;;;;;;13.27;5.32;;;31.70;29.90;;;;;;20843514;28;20057;-57
2023/08/10 08:46:09;;;;;;;15.80;5.03;;;32.00;29.50;;;;;;20843194;28;20045;-58
2023/08/10 08:56:10;;;;;;;12.80;3.95;;;32.10;29.20;;;;;;20841091;28;20041;-57
2023/08/10 09:06:11;;;;;;;11.85;4.85;;;32.20;28.70;;;;;;20841573;28;20088;-57
2023/08/10 09:16:14;;;;;;;12.85;4.53;;;32.20;28.50;;;;;;20839672;28;20037;-58
2023/08/10 09:26:19;;;;;;;10.60;4.00;;;32.50;27.70;;;;;;20839789;28;20072;-57
2023/08/10 09:36:24;;;;;;;9.35;3.95;;;32.70;27.40;;;;;;20839274;28;20398;-57
2023/08/10 09:46:25;;;;;;;10.57;3.70;;;32.90;26.40;;;;;;20837021;28;20120;-58
2023/08/10 09:56:26;;;;;;;12.55;4.15;;;33.30;25.90;;;;;;20836824;28;20569;-58
2023/08/10 10:06:27;;;;;;;8.98;3.75;;;33.20;24.10;;;;;;20835795;28;20053;-57
2023/08/10 10:16:30;;;;;;;6.05;2.75;;;33.40;23.80;;;;;;20835221;28;20099;-58
2023/08/10 10:26:31;;;;;;;5.22;2.97;;;33.60;21.80;;;;;;20833970;28;20621;-58
2023/08/10 10:36:32;;;;;;;8.77;3.70;;;33.90;21.50;;;;;;20832234;28;20089;-57
2023/08/10 10:46:33;;;;;;;7.22;4.65;;;34.00;20.90;;;;;;20831239;28;20041;-58
2023/08/10 10:56:35;;;;;;;5.63;2.90;;;34.00;21.10;;;;;;20831423;28;20501;-58
2023/08/10 11:06:38;;;;;;;8.55;3.47;;;34.20;20.50;;;;;;20828993;28;20060;-59
2023/08/10 11:16:42;;;;;;;6.07;3.78;;;34.40;19.80;;;;;;20828988;28;20056;-60
2023/08/10 11:26:43;;;;;;;8.73;3.55;;;34.40;19.90;;;;;;20830017;28;20124;-57
2023/08/10 11:36:43;;;;;;;7.18;3.42;;;34.60;19.20;;;;;;20830959;28;20131;-58
2023/08/10 11:46:44;;;;;;;5.50;3.47;;;34.90;19.60;;;;;;20829899;28;20391;-58
2023/08/10 11:56:45;;;;;;;8.65;3.30;;;35.10;18.90;;;;;;20829964;28;20056;-57
2023/08/10 12:06:46;;;;;;;6.53;2.90;;;35.00;19.60;;;;;;20841434;28;20443;-58
2023/08/10 12:16:47;;;;;;;5.07;3.38;;;35.20;18.30;;;;;;20844961;28;20153;-58
2023/08/10 12:26:48;;;;;;;5.60;3.00;;;35.10;18.50;;;;;;20843018;28;20089;-57
2023/08/10 12:36:49;;;;;;;4.80;2.92;;;35.20;18.80;;;;;;20843694;28;20124;-57
2023/08/10 12:46:50;;;;;;;5.82;3.75;;;35.70;18.70;;;;;;20842482;28;20125;-58
2023/08/10 12:56:51;;;;;;;6.50;3.38;;;35.90;18.60;;;;;;20842072;28;20056;-59
2023/08/10 13:06:51;;;;;;;5.70;3.03;;;35.90;18.10;;;;;;20840020;28;20128;-57
2023/08/10 13:16:52;;;;;;;7.45;3.10;;;36.10;17.70;;;;;;20839801;28;20501;-59
2023/08/10 13:26:53;;;;;;;7.60;2.75;;;36.20;17.20;;;;;;20839797;28;20419;-57
2023/08/10 13:36:55;;;;;;;6.10;2.58;;;36.50;17.60;;;;;;20838855;28;20045;-58
2023/08/10 13:46:56;;;;;;;4.18;2.58;;;36.50;16.20;;;;;;20838488;28;20122;-58
2023/08/10 13:56:59;;;;;;;6.47;2.60;;;36.50;16.80;;;;;;20836077;28;20084;-59
2023/08/10 14:07:00;;;;;;;5.80;3.33;;;36.60;16.10;;;;;;20836441;28;20041;-58
2023/08/10 14:17:01;;;;;;;4.38;3.00;;;36.60;16.80;;;;;;20834002;28;20052;-58
2023/08/10 14:27:02;;;;;;;5.00;2.75;;;36.70;16.30;;;;;;20833099;28;20140;-59
2023/08/10 14:37:03;;;;;;;5.15;2.50;;;36.80;16.50;;;;;;20832544;28;20050;-57
2023/08/10 14:47:04;;;;;;;3.00;2.47;;;36.90;15.70;;;;;;20833716;28;20129;-57
2023/08/10 14:57:05;;;;;;;6.25;3.08;;;36.80;16.10;;;;;;20832801;28;20077;-57
2023/08/10 15:07:05;;;;;;;4.03;1.80;;;37.10;15.40;;;;;;20832421;28;20042;-58
2023/08/10 15:17:06;;;;;;;7.03;2.73;;;37.10;14.20;;;;;;20831860;28;20048;-59
2023/08/10 15:27:07;;;;;;;3.10;1.80;;;37.10;15.60;;;;;;20830082;28;20352;-58
2023/08/10 15:37:08;;;;;;;3.33;2.15;;;37.20;14.00;;;;;;20841239;28;20491;-57
2023/08/10 15:47:09;;;;;;;3.90;2.33;;;37.30;13.60;;;;;;20856438;28;20402;-58
2023/08/10 15:57:10;;;;;;;3.92;2.03;;;37.10;14.00;;;;;;20857651;28;20041;-58
2023/08/10 16:07:10;;;;;;;2.67;1.83;;;37.00;14.70;;;;;;20857384;28;20042;-56
2023/08/10 16:17:11;;;;;;;4.93;1.92;;;36.80;15.10;;;;;;20855270;28;20298;-57
2023/08/10 16:27:12;;;;;;;3.10;1.85;;;36.90;15.00;;;;;;20855716;28;20061;-56
2023/08/10 16:37:13;;;;;;;6.38;2.25;;;36.80;14.90;;;;;;20856323;28;20042;-57
2023/08/10 16:47:13;;;;;;;4.78;1.85;;;36.60;15.10;;;;;;20851870;28;20053;-57
2023/08/10 16:57:16;;;;;;;2.75;1.38;;;36.60;15.00;;;;;;20840822;28;20046;-56
2023/08/10 17:07:17;;;;;;;2.95;1.58;;;36.40;15.30;;;;;;20841610;28;20065;-56
2023/08/10 17:17:19;;;;;;;4.32;1.70;;;36.40;15.20;;;;;;20840630;28;20045;-56
2023/08/10 17:27:22;;;;;;;3.33;1.83;;;36.20;15.20;;;;;;20839323;28;20133;-57
2023/08/10 17:37:27;;;;;;;3.97;1.42;;;36.20;15.30;;;;;;20838447;28;20048;-57
2023/08/10 17:47:29;;;;;;;3.00;1.50;;;36.10;15.30;;;;;;20837771;28;20046;-57
2023/08/10 17:57:30;;;;;;;4.13;1.80;;;35.90;15.00;;;;;;20835996;28;20434;-57
2023/08/10 18:07:31;;;;;;;3.10;1.50;;;35.80;14.80;;;;;;20836789;28;20372;-56
2023/08/10 18:17:31;;;;;;;2.10;1.30;;;35.60;14.30;;;;;;20835838;28;20060;-57
2023/08/10 18:27:32;;;;;;;6.78;1.63;;;35.50;14.70;;;;;;20834715;28;20160;-57
2023/08/10 18:37:33;;;;;;;4.28;1.55;;;35.30;14.60;;;;;;20832987;28;20143;-57
2023/08/10 18:47:36;;;;;;;4.43;1.65;;;35.10;14.40;;;;;;20833311;28;20041;-57
2023/08/10 18:57:38;;;;;;;2.58;1.50;;;35.00;14.50;;;;;;20831315;28;20046;-56
2023/08/10 19:07:39;;;;;;;3.80;1.65;;;34.80;14.20;;;;;;20830127;28;20180;-57
2023/08/10 19:17:40;;;;;;;3.08;1.40;;;34.60;14.30;;;;;;20829632;28;20562;-56
2023/08/10 19:27:42;;;;;;;4.05;1.52;;;34.30;14.40;;;;;;20830097;28;20053;-56
2023/08/10 19:37:43;;;;;;;4.80;1.77;;;34.10;14.60;;;;;;20830341;28;20050;-56
2023/08/10 19:47:44;;;;;;;3.63;2.08;;;33.80;14.90;;;;;;20828979;28;20084;-58
2023/08/10 19:57:45;;;;;;;3.75;1.60;;;33.60;14.70;;;;;;20828965;28;20505;-58
2023/08/10 20:07:46;;;;;;;4.85;1.85;;;33.40;14.80;;;;;;20829227;28;20048;-57
2023/08/10 20:17:47;;;;;;;4.57;2.22;;;33.20;15.10;;;;;;20829096;28;20380;-57
2023/08/10 20:27:47;;;;;;;5.78;2.33;;;33.00;15.50;;;;;;20839030;28;20050;-57
2023/08/10 20:37:48;;;;;;;4.85;2.47;;;32.80;15.50;;;;;;20844077;28;20487;-56
2023/08/10 20:47:49;;;;;;;3.85;2.50;;;32.60;15.90;;;;;;20842824;28;20137;-57
2023/08/10 20:57:50;;;;;;;5.03;2.15;;;32.30;16.30;;;;;;20841111;28;20135;-56
2023/08/10 21:07:50;;;;;;;5.03;2.40;;;32.10;16.40;;;;;;20841924;28;20424;-56
2023/08/10 21:17:51;;;;;;;5.43;2.38;;;32.00;16.10;;;;;;20840971;28;20101;-57
2023/08/10 21:27:52;;;;;;;6.35;2.80;;;31.80;16.70;;;;;;20839313;28;20061;-56
2023/08/10 21:37:53;;;;;;;4.50;2.50;;;31.60;16.80;;;;;;20838708;28;20048;-57
2023/08/10 21:47:53;;;;;;;6.05;3.50;;;31.50;16.50;;;;;;20838330;28;20041;-56
2023/08/10 21:57:54;;;;;;;5.93;3.38;;;31.50;17.30;;;;;;20837327;28;20084;-57
2023/08/10 22:07:55;;;;;;;6.50;4.13;;;31.20;17.90;;;;;;20835534;28;20048;-56
2023/08/10 22:17:56;;;;;;;7.20;5.43;;;31.00;18.80;;;;;;20835623;28;20049;-56
2023/08/10 22:27:56;;;;;;;8.32;3.78;;;30.70;19.60;;;;;;20833365;28;20057;-57
2023/08/10 22:37:57;;;;;;;7.95;3.25;;;30.60;19.60;;;;;;20834211;28;20434;-56
2023/08/10 22:47:58;;;;;;;9.68;6.20;;;30.70;19.40;;;;;;20831353;28;20385;-56
2023/08/10 22:57:59;;;;;;;5.70;3.67;;;30.60;19.40;;;;;;20831250;28;20200;-56
2023/08/10 23:08:00;;;;;;;5.13;2.78;;;30.60;19.40;;;;;;20831453;28;20077;-58
2023/08/10 23:18:01;;;;;;;8.98;3.83;;;30.50;18.80;;;;;;20830829;28;20128;-57
2023/08/10 23:28:02;;;;;;;8.50;3.08;;;30.40;18.50;;;;;;20829942;28;20533;-56
2023/08/10 23:38:05;;;;;;;9.95;6.35;;;30.20;19.20;;;;;;20830730;28;20429;-57
2023/08/10 23:48:06;;;;;;;7.95;3.00;;;30.00;19.80;;;;;;20830541;28;20045;-57
2023/08/10 23:58:07;;;;;;;6.38;3.22;;;30.00;18.80;;;;;;20836492;28;20125;-57
